< Typhoon 202003 2020 Season Typhoon 202005 >
Typhoon 202004 (HAGUPIT)
General InformationTrack Information on Google MapsDetailed Wind InformationForecast History on Google MapsAccess Analytics MapList of All Images || NewsDisaster Info.WeblogTrackbackTyphoon FrontTwiphoonTyphoon Now!Typhoon ImaginationJMA Disaster Info. XMLResourceGoogle EarthGE AnimationAtom FeedGeoJSON
Detalied Best Track (Time Zone = UTC)
Year Month Day Hour Lat. Long. Pressure (hPa) Wind (kt) Class Image Chart
2020 8 1 00 19.8 129.1 1006 30 2 Image Chart
2020 8 1 03 20.5 128.7 1006 30 2 Image Chart
2020 8 1 06 20.8 127.9 1004 30 2 Image Chart
2020 8 1 09 21.2 127.7 1004 30 2 Image Chart
2020 8 1 12 21.3 127.1 1002 35 3 Image Chart
2020 8 1 15 21.7 126.6 1002 35 3 Image Chart
2020 8 1 18 21.8 126.1 1002 35 3 Image Chart
2020 8 1 21 22.3 125.7 1002 35 3 Image Chart
2020 8 2 00 22.6 125.1 1000 40 3 Image Chart
2020 8 2 03 22.9 124.7 1000 40 3 Image Chart
2020 8 2 06 23.1 124.5 998 45 3 Image Chart
2020 8 2 09 23.4 124.5 996 45 3 Image Chart
2020 8 2 12 23.7 124.3 996 45 3 Image Chart
2020 8 2 15 23.9 124.1 996 45 3 Image Chart
2020 8 2 18 24.2 123.8 990 55 4 Image Chart
2020 8 2 21 24.6 123.7 985 60 4 Image Chart
2020 8 3 00 24.9 123.3 985 60 4 Image Chart
2020 8 3 03 25.3 122.9 985 60 4 Image Chart
2020 8 3 06 25.8 122.6 980 65 5 Image Chart
2020 8 3 09 26.6 122.1 980 65 5 Image Chart
2020 8 3 12 26.8 121.8 980 65 5 Image Chart
2020 8 3 15 27.2 121.5 975 70 5 Image Chart
2020 8 3 18 27.7 121.2 975 70 5 Image Chart
2020 8 3 21 28.2 120.8 980 65 5 Image Chart
2020 8 4 00 28.5 120.6 980 65 5 Image Chart
2020 8 4 03 29.0 120.4 985 60 4 Image Chart
2020 8 4 06 29.3 120.2 990 55 4 Image Chart
2020 8 4 09 30.0 120.2 992 50 4 Image Chart
2020 8 4 12 30.7 120.2 998 40 3 Image Chart
2020 8 4 15 31.3 120.4 998 40 3 Image Chart
2020 8 4 18 32.4 120.6 998 40 3 Image Chart
2020 8 4 21 33.4 120.6 1000 40 3 Image Chart
2020 8 5 00 33.9 120.8 1000 35 3 Image Chart
2020 8 5 03 34.7 121.0 1000 35 3 Image Chart
2020 8 5 06 35.3 121.5 1000 35 3 Image Chart
2020 8 5 09 35.8 122.0 1000 35 3 Image Chart
2020 8 5 12 36.4 122.6 1000 35 3 Image Chart
2020 8 5 15 37.2 123.5 1000 35 3 Image Chart
2020 8 5 18 38.0 124.5 1000 35 3 Image Chart
2020 8 5 21 38.6 126.5 1000 35 3 Image Chart
2020 8 6 00 39.0 128.0 1000 35 6 Image Chart
Japan Meteorological Agency Best Track Data | Correction Date : 2020-08-06
< Typhoon 202003 2020 Season Typhoon 202005 >

Help